Time;durP1;ratioP1;P1;durP2;ratioP2;P2;SDS_P1;SDS_P2;PMS_P1;PMS_P2;Temp;Humidity;BMP_temperature;BMP_pressure;BME280_temperature;BME280_humidity;BME280_pressure;Samples;Min_cycle;Max_cycle;Signal;HPM_P1;HPM_P2
2023/04/17 00:03:30;;;;;;;14.93;13.93;;;;;;;8.69;100.00;100377.28;10494715;28;20040;-74
2023/04/17 00:08:33;;;;;;;15.40;14.30;;;;;;;8.64;100.00;100374.75;10476597;28;20117;-75
2023/04/17 00:13:35;;;;;;;15.48;14.38;;;;;;;8.53;100.00;100379.28;10494921;28;20067;-75
2023/04/17 00:18:37;;;;;;;18.05;16.85;;;;;;;8.59;100.00;100373.97;10494877;28;20064;-73
2023/04/17 00:23:39;;;;;;;18.85;17.45;;;;;;;8.61;100.00;100373.94;10476462;28;20086;-72
2023/04/17 00:28:41;;;;;;;18.63;17.42;;;;;;;8.53;100.00;100376.69;10494838;28;20040;-73
2023/04/17 00:33:42;;;;;;;18.75;17.52;;;;;;;8.47;100.00;100372.41;10477355;28;20083;-73
2023/04/17 00:38:44;;;;;;;20.05;18.65;;;;;;;8.54;100.00;100373.16;10495000;28;20098;-73
2023/04/17 00:43:46;;;;;;;18.75;17.55;;;;;;;8.45;100.00;100373.31;10476403;28;20044;-73
2023/04/17 00:48:48;;;;;;;17.95;16.85;;;;;;;8.44;100.00;100380.31;10475960;28;20096;-74
2023/04/17 00:53:50;;;;;;;19.48;18.27;;;;;;;8.48;100.00;100381.13;10493402;28;20048;-74
2023/04/17 00:58:53;;;;;;;20.27;19.00;;;;;;;8.46;100.00;100375.94;10493067;28;20512;-74
2023/04/17 01:03:55;;;;;;;20.27;18.88;;;;;;;8.33;100.00;100374.38;10493129;28;20405;-73
2023/04/17 01:08:58;;;;;;;19.67;18.27;;;;;;;8.27;100.00;100374.47;10474481;28;20146;-72
2023/04/17 01:14:01;;;;;;;17.63;16.42;;;;;;;8.37;100.00;100372.59;10473829;28;20127;-73
2023/04/17 01:19:03;;;;;;;17.08;15.88;;;;;;;8.34;100.00;100376.09;10474643;28;20122;-73
2023/04/17 01:24:05;;;;;;;17.35;16.15;;;;;;;8.28;100.00;100373.59;10492724;28;20041;-72
2023/04/17 01:29:07;;;;;;;15.93;14.73;;;;;;;8.38;100.00;100377.81;10473948;28;20066;-73
2023/04/17 01:34:10;;;;;;;14.95;13.95;;;;;;;8.24;100.00;100375.41;10474263;28;20127;-73
2023/04/17 01:39:12;;;;;;;14.75;13.75;;;;;;;8.33;100.00;100379.63;10474314;28;20044;-73
2023/04/17 01:44:14;;;;;;;14.60;13.50;;;;;;;8.23;100.00;100378.03;10474218;28;20068;-73
2023/04/17 01:49:16;;;;;;;16.40;15.25;;;;;;;8.22;100.00;100373.69;10473977;28;20072;-73
2023/04/17 01:54:19;;;;;;;16.27;15.15;;;;;;;8.24;100.00;100383.25;10491680;28;20064;-73
2023/04/17 01:59:21;;;;;;;15.43;14.15;;;;;;;8.31;100.00;100384.00;10473726;28;20115;-73
2023/04/17 02:04:23;;;;;;;14.45;13.45;;;;;;;8.20;100.00;100380.72;10473280;28;20063;-73
2023/04/17 02:09:25;;;;;;;15.07;14.07;;;;;;;8.13;100.00;100376.47;10474424;28;20045;-73
2023/04/17 02:14:29;;;;;;;14.65;13.70;;;;;;;8.22;100.00;100386.78;10473942;28;20044;-73
2023/04/17 02:19:31;;;;;;;14.10;12.93;;;;;;;8.16;100.00;100382.53;10475235;28;20071;-73
2023/04/17 02:24:36;;;;;;;13.75;12.82;;;;;;;8.21;100.00;100391.16;10474494;28;20222;-73
2023/04/17 02:29:38;;;;;;;12.23;11.43;;;;;;;8.08;100.00;100387.00;10474025;28;20413;-73
2023/04/17 02:34:40;;;;;;;13.35;12.35;;;;;;;8.12;100.00;100385.22;10492417;28;20043;-73
2023/04/17 02:39:42;;;;;;;11.93;11.23;;;;;;;8.16;100.00;100386.91;10473401;28;20180;-73
2023/04/17 02:44:45;;;;;;;13.75;12.88;;;;;;;8.07;100.00;100383.53;10474341;28;20543;-73
2023/04/17 02:49:47;;;;;;;14.48;13.55;;;;;;;8.02;100.00;100384.50;10472938;28;20079;-73
2023/04/17 02:54:48;;;;;;;13.90;13.00;;;;;;;8.01;100.00;100382.75;10472810;28;20089;-73
2023/04/17 02:59:51;;;;;;;14.43;13.43;;;;;;;8.07;100.00;100380.91;10472758;28;20168;-74
2023/04/17 03:04:53;;;;;;;12.30;11.50;;;;;;;8.03;100.00;100381.00;10473490;28;20128;-74
2023/04/17 03:09:56;;;;;;;12.52;11.63;;;;;;;8.11;100.00;100383.50;10480095;28;20159;-74
2023/04/17 03:14:58;;;;;;;11.10;10.40;;;;;;;7.99;100.00;100376.69;10480001;28;20044;-74
2023/04/17 03:20:00;;;;;;;11.05;10.25;;;;;;;8.12;100.00;100380.84;10462661;28;20056;-74
2023/04/17 03:25:02;;;;;;;10.15;9.55;;;;;;;8.13;100.00;100384.31;10462773;28;20049;-73
2023/04/17 03:30:13;;;;;;;8.80;8.20;;;;;;;8.19;100.00;100381.59;10463815;28;20506;-74
2023/04/17 03:35:19;;;;;;;8.27;7.78;;;;;;;8.08;100.00;100384.41;10478330;28;20546;-74
2023/04/17 03:40:21;;;;;;;8.48;7.97;;;;;;;8.07;100.00;100393.16;10478421;28;20041;-73
2023/04/17 03:45:23;;;;;;;9.20;8.50;;;;;;;8.18;100.00;100387.72;10477738;28;20044;-73
2023/04/17 03:50:25;;;;;;;8.40;7.80;;;;;;;8.11;100.00;100386.13;10477773;28;20182;-73
2023/04/17 03:55:31;;;;;;;8.98;8.27;;;;;;;8.13;100.00;100393.03;10495355;28;20055;-73
2023/04/17 04:00:36;;;;;;;8.63;8.13;;;;;;;8.05;100.00;100400.13;10477784;28;20128;-73
2023/04/17 04:05:41;;;;;;;9.10;8.60;;;;;;;7.99;100.00;100398.50;10477461;28;20040;-73
2023/04/17 04:10:45;;;;;;;9.82;9.23;;;;;;;7.88;100.00;100397.81;10477388;28;20502;-73
2023/04/17 04:15:52;;;;;;;9.85;9.25;;;;;;;7.80;100.00;100405.75;10477633;28;20135;-74
2023/04/17 04:20:58;;;;;;;8.20;7.60;;;;;;;7.81;100.00;100409.25;10461220;28;20070;-74
2023/04/17 04:26:10;;;;;;;8.48;7.85;;;;;;;7.83;100.00;100415.31;10476977;28;20091;-73
2023/04/17 04:31:21;;;;;;;8.10;7.60;;;;;;;7.92;100.00;100411.69;10476398;28;20044;-73
2023/04/17 04:36:23;;;;;;;8.32;7.75;;;;;;;7.87;100.00;100413.50;10475565;28;20374;-72
2023/04/17 04:41:37;;;;;;;8.07;7.50;;;;;;;8.06;100.00;100418.47;10475576;28;20051;-73
2023/04/17 04:46:43;;;;;;;6.97;6.43;;;;;;;7.97;100.00;100421.22;10493491;28;20140;-73
2023/04/17 04:51:45;;;;;;;6.78;6.32;;;;;;;8.02;100.00;100414.16;10492827;28;20075;-72
2023/04/17 04:56:47;;;;;;;5.97;5.57;;;;;;;7.94;100.00;100425.63;10493214;28;20037;-72
2023/04/17 05:01:49;;;;;;;6.72;6.28;;;;;;;7.96;100.00;100427.31;10474517;28;20040;-73
2023/04/17 05:06:55;;;;;;;5.13;4.72;;;;;;;8.02;100.00;100429.88;10474788;28;20048;-73
2023/04/17 05:11:58;;;;;;;5.53;5.10;;;;;;;7.97;100.00;100429.06;10475322;28;20108;-72
2023/04/17 05:17:01;;;;;;;3.95;3.65;;;;;;;8.03;100.00;100439.44;10474993;28;20061;-73
2023/04/17 05:22:03;;;;;;;3.13;2.92;;;;;;;8.11;100.00;100444.56;10474218;28;20040;-73
2023/04/17 05:27:09;;;;;;;3.13;2.83;;;;;;;8.18;100.00;100450.56;10473716;28;20049;-74
2023/04/17 05:32:11;;;;;;;2.28;2.03;;;;;;;8.21;100.00;100448.78;10474014;28;20183;-73
2023/04/17 05:37:42;;;;;;;1.42;1.33;;;;;;;8.22;100.00;100455.72;10487516;28;20049;-74
2023/04/17 05:42:44;;;;;;;1.50;1.40;;;;;;;8.18;100.00;100454.03;10473484;28;20048;-74
2023/04/17 05:47:46;;;;;;;1.70;1.60;;;;;;;8.10;100.00;100463.78;10491568;28;20063;-74
2023/04/17 05:52:48;;;;;;;2.33;2.13;;;;;;;8.23;100.00;100472.31;10492379;28;20048;-74
2023/04/17 05:57:51;;;;;;;1.83;1.73;;;;;;;8.35;100.00;100478.22;10473780;28;20399;-74
2023/04/17 06:02:53;;;;;;;2.53;2.33;;;;;;;8.28;100.00;100470.50;10473373;28;20052;-75
2023/04/17 06:08:05;;;;;;;3.22;3.00;;;;;;;8.48;100.00;100471.06;10465447;28;20041;-75
2023/04/17 06:13:07;;;;;;;3.72;3.53;;;;;;;8.51;100.00;100470.19;10474081;28;20045;-74
2023/04/17 06:18:10;;;;;;;3.88;3.67;;;;;;;8.44;100.00;100479.00;10473113;28;20049;-75
2023/04/17 06:23:12;;;;;;;4.47;4.18;;;;;;;8.54;100.00;100485.81;10473542;28;20066;-74
2023/04/17 06:28:14;;;;;;;4.75;4.35;;;;;;;8.57;100.00;100491.03;10472688;28;20044;-75
2023/04/17 06:33:16;;;;;;;4.72;4.43;;;;;;;8.51;100.00;100494.63;10472382;28;20231;-74
2023/04/17 06:38:18;;;;;;;5.57;5.18;;;;;;;8.54;100.00;100491.97;10472242;28;20075;-75
2023/04/17 06:43:20;;;;;;;6.30;5.90;;;;;;;8.52;100.00;100503.34;10498193;28;20044;-74
2023/04/17 06:48:22;;;;;;;5.40;5.10;;;;;;;8.65;100.00;100499.63;10480871;28;20053;-74
2023/04/17 06:53:24;;;;;;;5.47;5.15;;;;;;;8.58;100.00;100508.47;10480102;28;20044;-74
2023/04/17 06:58:26;;;;;;;3.38;3.17;;;;;;;8.54;100.00;100522.50;10498152;28;20071;-74
2023/04/17 07:03:28;;;;;;;3.78;3.47;;;;;;;8.61;100.00;100523.28;10498891;28;20044;-74
2023/04/17 07:08:30;;;;;;;3.85;3.65;;;;;;;8.69;100.00;100524.03;10498445;28;20098;-74
2023/04/17 07:13:32;;;;;;;3.72;3.42;;;;;;;8.77;100.00;100528.28;10480598;28;20040;-75
2023/04/17 07:18:34;;;;;;;3.22;3.03;;;;;;;8.88;100.00;100535.06;10480068;28;20124;-74
2023/04/17 07:23:36;;;;;;;3.50;3.30;;;;;;;8.92;100.00;100537.63;10497418;28;20087;-75
2023/04/17 07:28:38;;;;;;;4.53;4.13;;;;;;;8.79;100.00;100541.34;10479248;28;20041;-74
2023/04/17 07:33:40;;;;;;;4.18;3.88;;;;;;;8.72;100.00;100555.41;10497172;28;20520;-73
2023/04/17 07:38:42;;;;;;;4.65;4.30;;;;;;;8.45;100.00;100560.19;10479333;28;20040;-75
2023/04/17 07:43:44;;;;;;;4.65;4.35;;;;;;;8.44;100.00;100571.56;10479069;28;20040;-73
2023/04/17 07:48:46;;;;;;;3.53;3.33;;;;;;;8.45;100.00;100568.06;10497238;28;20076;-75
2023/04/17 07:53:47;;;;;;;2.88;2.67;;;;;;;8.39;100.00;100578.63;10496013;28;20094;-74
2023/04/17 07:58:50;;;;;;;3.55;3.05;;;;;;;8.28;100.00;100572.66;10479754;28;20474;-74
2023/04/17 08:03:54;;;;;;;2.63;2.42;;;;;;;8.38;100.00;100584.75;10497360;28;20045;-73
2023/04/17 08:08:58;;;;;;;2.30;2.20;;;;;;;8.13;100.00;100596.41;10479427;28;20111;-73
2023/04/17 08:14:01;;;;;;;3.78;3.45;;;;;;;8.31;100.00;100593.53;10454256;28;20114;-74
2023/04/17 08:19:06;;;;;;;3.17;2.97;;;;;;;8.39;100.00;100601.34;10497110;28;20045;-74
2023/04/17 08:24:08;;;;;;;2.45;2.25;;;;;;;8.52;100.00;100606.38;10478058;28;20048;-75
2023/04/17 08:29:10;;;;;;;2.97;2.30;;;;;;;8.25;100.00;100606.75;10477816;28;20124;-74
2023/04/17 08:34:12;;;;;;;2.47;2.03;;;;;;;8.29;100.00;100614.53;10493731;28;20407;-74
2023/04/17 08:39:17;;;;;;;3.13;2.40;;;;;;;8.30;100.00;100626.75;10460369;28;20404;-74
2023/04/17 08:44:22;;;;;;;2.83;2.08;;;;;;;8.58;100.00;100615.91;10494577;28;20045;-74
2023/04/17 08:49:28;;;;;;;6.13;4.75;;;;;;;8.93;100.00;100623.25;10475791;28;20143;-73
2023/04/17 08:54:35;;;;;;;4.80;4.35;;;;;;;8.81;100.00;100626.09;10475877;28;20118;-75
2023/04/17 08:59:37;;;;;;;5.53;5.00;;;;;;;8.74;100.00;100627.06;10493734;28;20136;-74
2023/04/17 09:04:44;;;;;;;4.07;3.65;;;;;;;8.82;100.00;100625.19;10490690;28;20072;-74
2023/04/17 09:09:46;;;;;;;;;;;;;;;9.17;100.00;100624.63;10475940;28;20467;-74
2023/04/17 09:14:48;;;;;;;4.53;4.20;;;;;;;9.56;100.00;100636.19;10493595;28;19920;-74
2023/04/17 09:20:06;;;;;;;3.92;3.63;;;;;;;9.91;100.00;100637.28;10475155;28;20052;-74
2023/04/17 09:25:18;;;;;;;4.50;3.63;;;;;;;9.83;100.00;100639.19;10493328;28;20147;-74
2023/04/17 09:30:24;;;;;;;4.25;3.70;;;;;;;9.64;100.00;100650.91;10494018;28;20120;-74
2023/04/17 09:35:26;;;;;;;4.45;3.83;;;;;;;9.41;99.24;100646.94;10475841;28;20072;-74
2023/04/17 09:40:36;;;;;;;3.97;3.67;;;;;;;9.10;100.00;100649.22;10494361;28;20096;-74
2023/04/17 09:45:40;;;;;;;5.05;4.22;;;;;;;9.07;100.00;100647.53;10494317;28;20374;-74
2023/04/17 09:50:44;;;;;;;4.43;4.07;;;;;;;8.91;100.00;100647.78;10493087;28;20036;-73
2023/04/17 09:55:48;;;;;;;6.18;5.68;;;;;;;8.95;100.00;100646.84;10475012;28;20045;-73
2023/04/17 10:00:50;;;;;;;6.45;5.88;;;;;;;9.04;100.00;100658.03;10474602;28;20135;-74
2023/04/17 10:05:53;;;;;;;5.90;5.47;;;;;;;9.13;100.00;100659.66;10474408;28;20145;-73
2023/04/17 10:11:03;;;;;;;8.35;5.75;;;;;;;9.18;98.44;100656.97;10474037;28;20497;-74
2023/04/17 10:16:07;;;;;;;5.63;5.10;;;;;;;9.33;96.13;100657.56;10497148;28;20104;-75
2023/04/17 10:21:29;;;;;;;6.07;5.57;;;;;;;9.49;98.20;100657.31;10482270;28;20053;-73
2023/04/17 10:26:36;;;;;;;4.18;3.88;;;;;;;9.64;95.65;100653.53;10487868;28;20056;-74
2023/04/17 10:31:57;;;;;;;;;;;;;;;9.85;89.51;100648.75;10501295;28;20476;-73
2023/04/17 10:37:00;;;;;;;4.22;3.50;;;;;;;9.73;91.81;100654.22;10499546;28;19924;-73
2023/04/17 10:42:05;;;;;;;3.72;3.42;;;;;;;10.00;89.83;100658.09;10481578;28;20037;-73
2023/04/17 10:47:13;;;;;;;5.40;5.00;;;;;;;9.60;93.64;100661.47;10496652;28;20369;-73
2023/04/17 10:52:40;;;;;;;5.75;4.90;;;;;;;9.19;95.35;100648.19;10475547;28;20223;-73
2023/04/17 10:58:01;;;;;;;6.18;5.68;;;;;;;8.99;97.05;100657.25;10500406;28;20052;-73
2023/04/17 11:03:05;;;;;;;4.82;4.43;;;;;;;9.09;94.31;100657.97;10481069;28;20136;-73
2023/04/17 11:08:09;;;;;;;5.20;4.70;;;;;;;8.96;94.12;100659.91;10448486;28;20049;-73
2023/04/17 11:13:11;;;;;;;5.75;5.20;;;;;;;9.14;93.65;100657.91;10499464;28;20055;-73
2023/04/17 11:18:12;;;;;;;5.50;5.03;;;;;;;9.10;97.93;100657.94;10480220;28;20561;-74
2023/04/17 11:23:15;;;;;;;6.10;5.63;;;;;;;9.51;91.79;100664.25;10480679;28;20192;-74
2023/04/17 11:28:17;;;;;;;7.45;5.95;;;;;;;9.55;92.84;100668.56;10507171;22;20115;-72
2023/04/17 11:33:18;;;;;;;4.88;4.47;;;;;;;9.34;88.52;100663.66;10474914;28;20504;-72
2023/04/17 11:38:21;;;;;;;5.10;4.60;;;;;;;9.52;89.23;100671.25;10494193;28;20106;-72
2023/04/17 11:43:24;;;;;;;4.93;4.50;;;;;;;9.63;86.95;100663.19;10493774;28;20076;-72
2023/04/17 11:48:28;;;;;;;4.85;4.13;;;;;;;9.77;84.55;100670.81;10493327;28;20469;-71
2023/04/17 11:53:31;;;;;;;5.18;4.78;;;;;;;9.85;87.17;100676.78;10494370;28;20041;-72
2023/04/17 11:58:32;;;;;;;5.30;4.80;;;;;;;9.94;85.78;100673.13;10493298;28;20050;-71
2023/04/17 12:03:34;;;;;;;10.52;5.88;;;;;;;9.82;85.95;100675.06;10492939;28;20086;-72
2023/04/17 12:08:55;;;;;;;6.40;5.90;;;;;;;9.38;86.05;100686.34;10474326;28;20456;-72
2023/04/17 12:13:57;;;;;;;8.25;6.28;;;;;;;9.14;87.25;100681.50;10492831;28;20128;-73
2023/04/17 12:18:59;;;;;;;6.50;6.00;;;;;;;9.23;87.17;100683.97;10492974;28;20076;-72
2023/04/17 12:24:01;;;;;;;7.70;6.68;;;;;;;9.19;87.66;100688.41;10491583;28;20037;-73
2023/04/17 12:29:02;;;;;;;7.03;6.55;;;;;;;9.19;88.39;100679.66;10474200;28;20041;-72
2023/04/17 12:34:04;;;;;;;6.72;6.20;;;;;;;9.43;84.50;100683.63;10492126;28;20037;-72
2023/04/17 12:39:06;;;;;;;6.90;6.30;;;;;;;9.42;84.78;100698.53;10493462;28;20045;-71
2023/04/17 12:44:08;;;;;;;6.95;6.18;;;;;;;9.51;85.46;100687.88;10491643;28;20102;-71
2023/04/17 12:49:10;;;;;;;6.90;6.30;;;;;;;9.64;83.18;100690.28;10490573;28;20512;-71
2023/04/17 12:54:12;;;;;;;6.15;5.65;;;;;;;9.56;83.81;100683.44;10490248;28;20045;-71
2023/04/17 12:59:15;;;;;;;6.40;5.15;;;;;;;9.86;83.26;100684.63;10492334;28;20048;-72
2023/04/17 13:04:17;;;;;;;6.35;5.75;;;;;;;9.79;84.52;100685.66;10490225;28;20139;-72
2023/04/17 13:09:19;;;;;;;6.68;6.07;;;;;;;9.68;82.19;100691.97;10489997;28;20398;-72
2023/04/17 13:14:21;;;;;;;6.97;6.47;;;;;;;9.54;83.42;100692.22;10490643;28;20037;-72
2023/04/17 13:19:24;;;;;;;7.65;6.93;;;;;;;9.34;85.96;100690.81;10473713;28;20067;-72
2023/04/17 13:24:25;;;;;;;9.20;8.48;;;;;;;9.34;85.58;100697.78;10490168;28;20357;-72
2023/04/17 13:29:27;;;;;;;8.43;7.75;;;;;;;9.05;87.36;100706.97;10472324;28;20079;-74
2023/04/17 13:34:29;;;;;;;7.90;7.30;;;;;;;8.97;88.40;100702.72;10488836;28;20416;-72
2023/04/17 13:39:31;;;;;;;8.75;7.00;;;;;;;8.91;86.69;100706.31;10489372;28;20506;-73
2023/04/17 13:44:33;;;;;;;8.85;8.15;;;;;;;9.11;87.15;100700.75;10497681;28;20037;-73
2023/04/17 13:49:35;;;;;;;8.55;7.65;;;;;;;9.21;87.39;100698.88;10479723;28;20048;-72
2023/04/17 13:54:37;;;;;;;8.50;7.80;;;;;;;9.26;86.63;100702.31;10481083;28;20063;-73
2023/04/17 13:59:39;;;;;;;9.75;8.95;;;;;;;9.28;85.41;100700.50;10498685;28;20047;-73
2023/04/17 14:04:42;;;;;;;9.70;8.90;;;;;;;9.24;86.37;100702.31;10500658;28;20056;-72
2023/04/17 14:09:44;;;;;;;8.80;8.02;;;;;;;9.21;85.01;100699.75;10481356;28;20123;-73
2023/04/17 14:14:46;;;;;;;8.93;8.20;;;;;;;9.02;86.06;100707.00;10501335;28;20051;-73
2023/04/17 14:19:48;;;;;;;9.30;8.60;;;;;;;9.04;85.96;100701.75;10498333;28;20063;-74
2023/04/17 14:24:51;;;;;;;9.50;8.77;;;;;;;9.11;84.13;100690.28;10479438;28;20040;-73
2023/04/17 14:29:53;;;;;;;9.02;8.40;;;;;;;9.08;85.50;100696.44;10499618;28;20115;-72
2023/04/17 14:34:55;;;;;;;10.95;9.90;;;;;;;9.02;86.75;100700.91;10498688;28;20040;-73
2023/04/17 14:39:57;;;;;;;11.05;10.10;;;;;;;9.10;86.68;100704.28;10465263;28;20045;-73
2023/04/17 14:45:00;;;;;;;10.45;9.55;;;;;;;9.17;85.61;100702.44;10498925;28;20041;-73
2023/04/17 14:50:08;;;;;;;10.82;10.05;;;;;;;9.13;85.11;100701.63;10500118;28;20404;-73
2023/04/17 14:55:11;;;;;;;9.00;8.20;;;;;;;9.25;81.47;100708.41;10482484;28;20463;-72
2023/04/17 15:00:13;;;;;;;9.82;9.05;;;;;;;9.09;81.80;100710.44;10483373;28;20063;-73
2023/04/17 15:05:17;;;;;;;9.38;8.63;;;;;;;9.43;82.04;100716.03;10491658;28;20058;-73
2023/04/17 15:10:19;;;;;;;9.70;9.00;;;;;;;9.47;79.76;100712.44;10507185;28;20055;-74
2023/04/17 15:15:21;;;;;;;9.10;8.40;;;;;;;9.24;79.45;100711.94;10473051;28;20462;-73
2023/04/17 15:20:23;;;;;;;9.60;8.90;;;;;;;9.31;81.20;100714.44;10490138;28;20071;-73
2023/04/17 15:25:25;;;;;;;10.27;9.57;;;;;;;9.32;81.51;100712.69;10509142;28;20064;-73
2023/04/17 15:30:28;;;;;;;9.43;8.63;;;;;;;9.26;79.48;100718.91;10492717;28;20072;-73
2023/04/17 15:35:30;;;;;;;9.73;9.02;;;;;;;9.32;79.27;100723.19;10492181;28;20114;-72
2023/04/17 15:40:32;;;;;;;8.80;8.00;;;;;;;9.00;81.13;100729.78;10491181;28;20040;-73
2023/04/17 15:45:35;;;;;;;36.95;11.20;;;;;;;9.04;83.18;100722.75;10512244;28;20095;-73
2023/04/17 15:50:37;;;;;;;8.68;7.95;;;;;;;8.93;83.84;100735.13;10509643;28;20056;-74
2023/04/17 15:55:40;;;;;;;8.30;7.70;;;;;;;8.81;85.16;100729.19;10489544;28;20449;-73
2023/04/17 16:00:42;;;;;;;8.02;7.22;;;;;;;8.50;85.88;100741.81;10492764;28;20052;-74
2023/04/17 16:05:45;;;;;;;6.95;6.43;;;;;;;8.43;88.20;100732.28;10494076;28;20044;-73
2023/04/17 16:10:58;;;;;;;8.32;7.63;;;;;;;8.53;88.39;100739.13;10514686;28;20056;-74
2023/04/17 16:16:00;;;;;;;4.93;4.53;;;;;;;8.39;86.56;100733.19;10515569;28;20178;-72
2023/04/17 16:21:05;;;;;;;4.60;4.20;;;;;;;8.55;85.92;100737.38;10493272;28;20668;-73
2023/04/17 16:26:08;;;;;;;4.60;4.30;;;;;;;8.47;86.09;100736.59;10514743;28;20438;-73
2023/04/17 16:31:10;;;;;;;4.05;3.60;;;;;;;8.38;87.01;100735.84;10531136;28;20067;-74
2023/04/17 16:36:14;;;;;;;5.88;5.28;;;;;;;8.18;87.07;100741.25;10532797;28;20044;-73
2023/04/17 16:41:17;;;;;;;4.05;3.75;;;;;;;8.04;88.64;100734.41;10537701;28;20060;-73
2023/04/17 16:46:20;;;;;;;6.05;3.20;;;;;;;8.20;87.77;100742.13;10556723;28;20040;-74
2023/04/17 16:51:48;;;;;;;3.13;2.92;;;;;;;8.01;88.58;100741.41;10523112;28;20058;-73
2023/04/17 16:56:58;;;;;;;3.63;3.33;;;;;;;8.00;88.80;100748.41;10536693;28;20046;-73
2023/04/17 17:02:01;;;;;;;3.53;3.22;;;;;;;7.95;89.58;100744.09;10519367;28;20044;-73
2023/04/17 17:07:03;;;;;;;3.95;3.55;;;;;;;7.91;90.79;100753.75;10524817;28;20207;-73
2023/04/17 17:12:05;;;;;;;3.92;3.63;;;;;;;7.99;90.46;100754.53;10533684;28;20051;-73
2023/04/17 17:17:07;;;;;;;4.00;3.65;;;;;;;7.93;91.78;100759.84;10534565;28;20068;-72
2023/04/17 17:22:08;;;;;;;4.35;4.05;;;;;;;7.94;92.78;100758.09;10533903;28;20051;-72
2023/04/17 17:27:11;;;;;;;4.13;3.72;;;;;;;7.82;92.92;100756.44;10532121;28;20335;-73
2023/04/17 17:32:15;;;;;;;4.45;4.07;;;;;;;7.73;94.94;100767.84;10493389;22;20048;-74
2023/04/17 17:37:17;;;;;;;4.72;4.32;;;;;;;7.77;95.01;100759.09;10438648;28;20044;-74
2023/04/17 17:42:19;;;;;;;4.30;4.00;;;;;;;7.89;94.10;100767.75;10438927;28;20063;-74
2023/04/17 17:47:22;;;;;;;4.55;4.10;;;;;;;7.70;96.32;100769.63;10437754;28;20128;-73
2023/04/17 17:52:24;;;;;;;4.95;4.55;;;;;;;7.61;98.33;100774.94;10421580;28;20117;-75
2023/04/17 17:57:26;;;;;;;5.18;4.88;;;;;;;7.51;100.00;100780.22;10455605;28;20037;-75
2023/04/17 18:02:42;;;;;;;5.35;4.95;;;;;;;7.44;100.00;100775.94;10437630;28;20049;-74
2023/04/17 18:07:44;;;;;;;5.05;4.70;;;;;;;7.61;100.00;100772.31;10438048;28;20068;-75
2023/04/17 18:12:46;;;;;;;5.22;4.82;;;;;;;7.47;100.00;100772.41;10421355;28;20049;-74
2023/04/17 18:17:50;;;;;;;5.57;5.18;;;;;;;7.49;100.00;100779.41;10439872;28;20056;-74
2023/04/17 18:22:52;;;;;;;6.00;5.15;;;;;;;7.57;100.00;100789.81;10435651;28;20051;-74
2023/04/17 18:27:54;;;;;;;5.25;4.85;;;;;;;7.44;100.00;100791.66;10458884;28;20052;-75
2023/04/17 18:32:56;;;;;;;5.40;5.00;;;;;;;7.43;100.00;100784.66;10458604;28;20107;-75
2023/04/17 18:37:58;;;;;;;5.97;5.57;;;;;;;7.38;100.00;100793.41;10446711;28;20446;-75
2023/04/17 18:43:01;;;;;;;5.68;5.20;;;;;;;7.31;100.00;100795.22;10465250;28;20053;-74
2023/04/17 18:48:06;;;;;;;6.65;6.05;;;;;;;7.23;100.00;100795.25;10462670;28;20143;-74
2023/04/17 18:53:10;;;;;;;6.43;5.93;;;;;;;7.39;100.00;100797.75;10460526;28;20037;-73
2023/04/17 18:58:12;;;;;;;7.63;7.03;;;;;;;7.20;100.00;100799.63;10443713;28;20047;-74
2023/04/17 19:03:13;;;;;;;6.45;5.95;;;;;;;7.31;100.00;100803.94;10460144;28;20100;-74
2023/04/17 19:08:15;;;;;;;7.47;6.90;;;;;;;7.29;100.00;100802.19;10462429;28;20055;-74
2023/04/17 19:13:17;;;;;;;7.10;6.60;;;;;;;7.26;100.00;100807.44;10443216;28;20118;-75
2023/04/17 19:18:19;;;;;;;8.00;7.38;;;;;;;7.25;100.00;100808.31;10460878;28;20044;-75
2023/04/17 19:23:21;;;;;;;6.85;6.25;;;;;;;7.21;100.00;100806.59;10426414;28;20121;-75
2023/04/17 19:28:24;;;;;;;8.50;7.13;;;;;;;7.13;100.00;100803.16;10426916;28;20064;-75
2023/04/17 19:33:26;;;;;;;6.85;6.35;;;;;;;7.06;100.00;100807.56;10441785;28;20073;-74
2023/04/17 19:38:31;;;;;;;7.95;7.10;;;;;;;7.26;100.00;100802.19;10460013;28;20116;-74
2023/04/17 19:43:32;;;;;;;6.88;6.35;;;;;;;7.39;100.00;100816.94;10459942;28;20475;-74
2023/04/17 19:48:35;;;;;;;7.10;6.60;;;;;;;7.30;100.00;100806.53;10458511;28;20120;-74
2023/04/17 19:53:39;;;;;;;6.93;6.40;;;;;;;7.20;100.00;100802.25;10441087;28;20044;-74
2023/04/17 19:58:41;;;;;;;8.25;7.55;;;;;;;7.32;100.00;100803.03;10458764;28;20075;-74
2023/04/17 20:03:44;;;;;;;7.82;7.22;;;;;;;7.49;100.00;100805.56;10441306;28;20044;-74
2023/04/17 20:08:46;;;;;;;9.88;9.10;;;;;;;7.23;100.00;100805.72;10458468;28;20041;-74
2023/04/17 20:13:48;;;;;;;8.40;7.75;;;;;;;7.11;100.00;100802.28;10438657;28;20098;-75
2023/04/17 20:18:50;;;;;;;9.15;8.55;;;;;;;7.27;100.00;100814.41;10437818;28;20135;-75
2023/04/17 20:23:54;;;;;;;9.82;9.13;;;;;;;7.24;100.00;100814.44;10437775;28;20056;-74
2023/04/17 20:28:55;;;;;;;9.43;8.73;;;;;;;7.25;100.00;100816.16;10476436;28;20048;-73
2023/04/17 20:33:57;;;;;;;10.27;9.48;;;;;;;7.43;100.00;100818.66;10495328;28;20040;-75
2023/04/17 20:38:59;;;;;;;10.63;9.93;;;;;;;7.15;100.00;100810.13;10495229;28;20048;-74
2023/04/17 20:44:01;;;;;;;11.23;10.48;;;;;;;7.17;100.00;100810.09;10477273;28;20116;-74
2023/04/17 20:49:03;;;;;;;11.13;10.23;;;;;;;7.08;100.00;100806.69;10495272;28;20126;-73
2023/04/17 20:54:04;;;;;;;11.52;10.63;;;;;;;7.07;100.00;100804.91;10460603;28;20036;-75
2023/04/17 20:59:06;;;;;;;12.43;11.45;;;;;;;7.17;100.00;100802.25;10494885;28;20051;-75
2023/04/17 21:04:11;;;;;;;14.05;12.65;;;;;;;7.01;100.00;100810.19;10495332;28;20040;-74
2023/04/17 21:09:15;;;;;;;12.57;11.57;;;;;;;7.06;100.00;100805.81;10476622;28;20048;-75
2023/04/17 21:14:17;;;;;;;13.70;12.68;;;;;;;7.33;100.00;100812.63;10475981;28;20155;-74
2023/04/17 21:19:19;;;;;;;13.73;12.57;;;;;;;7.10;100.00;100813.63;10476342;28;20048;-74
2023/04/17 21:24:21;;;;;;;16.38;14.43;;;;;;;6.92;100.00;100805.00;10493856;28;20040;-73
2023/04/17 21:29:26;;;;;;;15.35;13.88;;;;;;;6.94;100.00;100803.25;10494125;28;20084;-73
2023/04/17 21:34:28;;;;;;;14.32;12.82;;;;;;;6.92;100.00;100804.13;10493416;28;20040;-74
2023/04/17 21:39:30;;;;;;;15.88;14.35;;;;;;;6.83;100.00;100805.91;10475194;28;20067;-73
2023/04/17 21:44:34;;;;;;;16.40;15.05;;;;;;;6.80;100.00;100795.47;10492733;28;20054;-75
2023/04/17 21:49:35;;;;;;;16.02;14.60;;;;;;;6.90;100.00;100804.13;10493432;28;20055;-75
2023/04/17 21:54:37;;;;;;;18.73;17.15;;;;;;;6.77;100.00;100794.59;10493161;28;20040;-74
2023/04/17 21:59:39;;;;;;;18.75;17.13;;;;;;;6.72;100.00;100798.97;10492884;28;20116;-74
2023/04/17 22:04:41;;;;;;;17.90;16.35;;;;;;;6.74;100.00;100792.88;10495689;28;20039;-74
2023/04/17 22:09:43;;;;;;;16.92;15.60;;;;;;;6.85;100.00;100797.19;10493318;28;20120;-74
2023/04/17 22:14:46;;;;;;;14.77;13.48;;;;;;;6.92;100.00;100807.63;10501453;28;20042;-74
2023/04/17 22:19:48;;;;;;;15.57;14.38;;;;;;;6.94;100.00;100802.38;10500625;28;20060;-74
2023/04/17 22:24:50;;;;;;;17.60;16.00;;;;;;;6.82;100.00;100805.94;10500400;28;20070;-73
2023/04/17 22:29:52;;;;;;;18.60;16.98;;;;;;;6.75;100.00;100802.47;10481202;28;20048;-74
2023/04/17 22:34:54;;;;;;;16.73;15.32;;;;;;;6.72;100.00;100798.97;10499521;28;20105;-74
2023/04/17 22:39:55;;;;;;;16.33;15.05;;;;;;;6.77;100.00;100805.06;10481235;28;20048;-73
2023/04/17 22:44:57;;;;;;;14.48;13.27;;;;;;;6.73;100.00;100799.00;10480941;28;20469;-74
2023/04/17 22:49:59;;;;;;;14.73;13.50;;;;;;;6.72;100.00;100806.81;10499544;28;20044;-74
2023/04/17 22:55:01;;;;;;;15.10;14.00;;;;;;;6.64;100.00;100798.13;10498823;28;20040;-74
2023/04/17 23:00:03;;;;;;;14.35;13.13;;;;;;;6.76;100.00;100808.56;10498528;28;20109;-74
2023/04/17 23:05:05;;;;;;;15.30;13.88;;;;;;;6.70;100.00;100799.00;10472997;28;20049;-74
2023/04/17 23:10:08;;;;;;;15.00;13.60;;;;;;;6.65;100.00;100802.50;10499197;28;20118;-74
2023/04/17 23:15:10;;;;;;;13.93;12.82;;;;;;;6.67;100.00;100793.78;10498672;28;20067;-74